Time;durP1;ratioP1;P1;durP2;ratioP2;P2;SDS_P1;SDS_P2;PMS_P1;PMS_P2;Temp;Humidity;BMP_temperature;BMP_pressure;BME280_temperature;BME280_humidity;BME280_pressure;Samples;Min_cycle;Max_cycle;Signal;HPM_P1;HPM_P2
2023/01/10 05:29:13;;;;;;;21.33;2.63;;;14.20;69.30;;;;;;4964311;23;20060;-71
2023/01/10 05:31:39;;;;;;;19.88;2.78;;;14.30;69.10;;;;;;4903812;29;20419;-71
2023/01/10 05:34:05;;;;;;;21.67;3.20;;;14.40;69.20;;;;;;4902969;29;20045;-71
2023/01/10 05:36:30;;;;;;;27.95;3.22;;;14.50;69.50;;;;;;4902565;29;20096;-73
2023/01/10 05:38:58;;;;;;;17.15;2.67;;;14.60;69.40;;;;;;4903172;29;20044;-75
2023/01/10 05:41:24;;;;;;;30.90;3.65;;;14.60;69.50;;;;;;4903011;29;20060;-73
2023/01/10 05:43:51;;;;;;;24.42;3.03;;;14.70;70.20;;;;;;4902939;29;20519;-72
2023/01/10 05:46:16;;;;;;;20.48;2.97;;;14.80;69.50;;;;;;4902933;29;20452;-75
2023/01/10 05:48:42;;;;;;;21.58;2.65;;;14.80;69.50;;;;;;4903595;29;20115;-76
2023/01/10 05:51:11;;;;;;;21.08;2.90;;;14.90;69.60;;;;;;4902925;29;20075;-80
2023/01/10 05:53:37;;;;;;;26.35;4.88;;;14.90;69.60;;;;;;4885933;29;20474;-75
2023/01/10 05:56:06;;;;;;;33.85;4.28;;;14.90;69.70;;;;;;4902939;29;20040;-81
2023/01/10 05:58:38;;;;;;;23.25;3.58;;;14.80;67.80;;;;;;4901764;29;20052;-81
2023/01/10 06:01:21;;;;;;;24.35;3.53;;;14.90;69.60;;;;;;4885616;29;20087;-82
2023/01/10 06:22:23;;;;;;;12.45;2.45;;;15.60;68.50;;;;;;5494185;23;20118;-83
2023/01/10 06:24:53;;;;;;;20.35;3.40;;;15.70;67.90;;;;;;4921069;29;20115;-80
2023/01/10 06:27:18;;;;;;;21.77;3.72;;;15.70;68.10;;;;;;4904119;29;20048;-78
2023/01/10 06:29:44;;;;;;;22.63;3.22;;;15.70;67.80;;;;;;4920863;29;20055;-81
2023/01/10 06:32:10;;;;;;;25.00;4.07;;;15.80;67.80;;;;;;4920787;29;20530;-81
2023/01/10 06:34:36;;;;;;;28.42;4.78;;;15.80;67.80;;;;;;4904552;29;20348;-82
2023/01/10 06:37:02;;;;;;;31.65;4.00;;;15.80;67.80;;;;;;4920728;29;20095;-72
2023/01/10 06:39:27;;;;;;;33.00;3.85;;;15.80;66.90;;;;;;4924341;29;20054;-72
2023/01/10 06:41:53;;;;;;;31.90;4.65;;;15.90;67.30;;;;;;4919723;29;20032;-73
2023/01/10 06:44:19;;;;;;;27.88;4.43;;;15.90;67.60;;;;;;4920488;29;20044;-72
2023/01/10 06:46:44;;;;;;;30.45;4.60;;;15.90;67.80;;;;;;4921184;29;20485;-74
2023/01/10 06:49:10;;;;;;;37.63;5.07;;;16.00;68.00;;;;;;4920094;29;20040;-77
2023/01/10 06:51:36;;;;;;;31.38;4.90;;;16.00;68.10;;;;;;4920197;29;20482;-72
2023/01/10 06:54:02;;;;;;;37.03;4.28;;;16.10;67.50;;;;;;4920584;29;20053;-72
2023/01/10 06:56:27;;;;;;;36.42;4.53;;;16.10;67.10;;;;;;4920636;29;20052;-73
2023/01/10 06:58:53;;;;;;;28.33;4.32;;;15.90;66.90;;;;;;4920576;29;20059;-72
2023/01/10 07:01:20;;;;;;;23.42;3.95;;;16.00;67.50;;;;;;4919746;29;20048;-72
2023/01/10 07:03:46;;;;;;;30.05;3.80;;;16.00;67.60;;;;;;4921084;29;20355;-73
2023/01/10 07:06:12;;;;;;;30.20;5.13;;;16.00;67.70;;;;;;4920424;29;20044;-73
2023/01/10 07:08:40;;;;;;;31.33;5.53;;;15.90;67.70;;;;;;4920643;29;20048;-72
2023/01/10 07:11:07;;;;;;;32.45;4.13;;;15.90;67.80;;;;;;4920082;29;20063;-72
2023/01/10 07:13:32;;;;;;;36.70;5.93;;;15.90;67.90;;;;;;4919541;29;20080;-72
2023/01/10 07:16:13;;;;;;;33.45;4.38;;;15.80;68.00;;;;;;4911739;29;20051;-74
2023/01/10 07:18:40;;;;;;;35.30;4.78;;;15.80;68.10;;;;;;4919166;29;20123;-72
2023/01/10 07:21:07;;;;;;;24.65;4.13;;;15.80;68.10;;;;;;4918077;29;20052;-72
2023/01/10 07:23:33;;;;;;;21.27;3.30;;;15.70;68.00;;;;;;4919202;29;20048;-74
2023/01/10 07:26:04;;;;;;;21.67;3.60;;;15.60;68.10;;;;;;4919673;29;20367;-73
2023/01/10 07:28:30;;;;;;;24.58;3.47;;;15.60;68.20;;;;;;4919775;29;20037;-74
2023/01/10 07:31:00;;;;;;;27.42;3.95;;;15.60;68.20;;;;;;4919347;29;20044;-71
2023/01/10 07:33:27;;;;;;;24.85;3.47;;;15.50;68.20;;;;;;4918836;29;20107;-75
2023/01/10 07:35:53;;;;;;;17.27;3.47;;;15.50;68.20;;;;;;4918907;29;20055;-76
2023/01/10 07:38:19;;;;;;;15.82;3.28;;;15.40;68.40;;;;;;4918876;29;20040;-74
2023/01/10 07:40:44;;;;;;;20.98;3.80;;;15.50;68.60;;;;;;4919168;29;20116;-79
2023/01/10 07:43:10;;;;;;;13.30;2.90;;;15.40;68.40;;;;;;4902479;29;20107;-78
2023/01/10 07:45:39;;;;;;;18.05;4.18;;;15.40;68.20;;;;;;4918993;29;20056;-78
2023/01/10 07:48:05;;;;;;;20.35;3.72;;;15.40;68.00;;;;;;4918844;29;20466;-75
2023/01/10 07:50:33;;;;;;;23.55;4.15;;;15.40;67.90;;;;;;4919086;29;20055;-73
2023/01/10 07:53:00;;;;;;;30.17;5.13;;;15.40;66.50;;;;;;4913822;29;20076;-73
2023/01/10 07:55:27;;;;;;;23.25;4.20;;;15.40;65.80;;;;;;4913693;29;20123;-76
2023/01/10 07:57:56;;;;;;;18.45;5.20;;;15.40;65.70;;;;;;4918003;29;20058;-78
2023/01/10 08:00:27;;;;;;;19.20;4.72;;;15.30;64.60;;;;;;4918794;29;20351;-80
2023/01/10 08:02:54;;;;;;;14.32;3.42;;;15.30;63.50;;;;;;4917995;29;20028;-81
2023/01/10 08:05:21;;;;;;;15.23;4.43;;;15.10;62.70;;;;;;4900201;29;20072;-79
2023/01/10 08:07:48;;;;;;;19.05;3.97;;;15.00;61.50;;;;;;4915981;29;20507;-75
2023/01/10 08:10:16;;;;;;;37.15;5.95;;;14.80;61.80;;;;;;4918627;29;20339;-78
2023/01/10 08:12:42;;;;;;;37.30;5.22;;;14.70;62.80;;;;;;4918510;29;20475;-71
2023/01/10 08:15:08;;;;;;;28.92;5.30;;;14.60;63.40;;;;;;4917929;29;20083;-71
2023/01/10 08:17:34;;;;;;;26.52;4.80;;;14.60;63.80;;;;;;4916298;29;20036;-73
2023/01/10 08:20:01;;;;;;;20.48;5.07;;;14.60;63.80;;;;;;4917701;29;20052;-71
2023/01/10 08:22:26;;;;;;;20.63;3.50;;;14.70;63.80;;;;;;4917862;29;20349;-70
2023/01/10 08:24:53;;;;;;;17.15;3.95;;;14.70;63.80;;;;;;4917915;29;20059;-71
2023/01/10 08:27:18;;;;;;;16.42;3.72;;;14.70;63.90;;;;;;4915536;29;20368;-72
2023/01/10 08:29:44;;;;;;;21.38;4.72;;;14.70;64.10;;;;;;4915914;29;20115;-72
2023/01/10 08:32:10;;;;;;;18.05;3.88;;;14.70;64.20;;;;;;4918504;29;20355;-72
2023/01/10 08:34:36;;;;;;;14.10;3.78;;;14.70;64.40;;;;;;4918582;29;20150;-71
2023/01/10 08:37:02;;;;;;;11.80;3.15;;;14.70;64.60;;;;;;4918001;29;20093;-72
2023/01/10 08:39:29;;;;;;;16.45;3.28;;;14.70;64.70;;;;;;4918327;29;20039;-71
2023/01/10 08:41:55;;;;;;;14.20;3.78;;;14.70;64.90;;;;;;4918260;29;20062;-72
2023/01/10 08:44:21;;;;;;;13.57;3.85;;;14.70;65.10;;;;;;4917905;29;20062;-72
2023/01/10 08:46:48;;;;;;;14.85;3.63;;;14.70;65.30;;;;;;4919125;29;20044;-71
2023/01/10 08:49:14;;;;;;;16.48;3.30;;;14.60;65.50;;;;;;4922336;29;20127;-72
2023/01/10 08:51:39;;;;;;;13.35;2.92;;;14.70;65.70;;;;;;4922221;29;20424;-72
2023/01/10 08:54:05;;;;;;;17.20;4.13;;;14.70;65.80;;;;;;4922012;29;20051;-72
2023/01/10 08:56:31;;;;;;;18.65;4.05;;;14.70;65.80;;;;;;4921388;29;20044;-72
2023/01/10 08:58:57;;;;;;;13.80;3.75;;;14.60;65.80;;;;;;4919136;29;20375;-72
2023/01/10 09:01:23;;;;;;;15.73;3.15;;;14.40;66.20;;;;;;4922522;29;20044;-73
2023/01/10 09:03:48;;;;;;;17.38;3.65;;;14.40;66.40;;;;;;4921550;29;20111;-71
2023/01/10 09:06:14;;;;;;;12.32;3.70;;;14.40;66.60;;;;;;4921299;29;20056;-72
2023/01/10 09:08:40;;;;;;;18.88;3.13;;;14.30;66.70;;;;;;4922310;29;20047;-72
2023/01/10 09:11:05;;;;;;;15.13;2.85;;;14.40;67.00;;;;;;4922945;29;20413;-72
2023/01/10 09:13:32;;;;;;;16.38;2.70;;;14.40;67.30;;;;;;4922668;29;20055;-72
2023/01/10 09:15:58;;;;;;;8.68;2.35;;;14.40;67.30;;;;;;4922393;29;20086;-72
2023/01/10 09:18:25;;;;;;;15.73;2.50;;;14.50;67.50;;;;;;4922256;29;20048;-73
2023/01/10 09:20:52;;;;;;;14.75;2.75;;;14.60;67.50;;;;;;4922089;29;20118;-72
2023/01/10 09:23:20;;;;;;;12.18;3.28;;;14.60;67.60;;;;;;4922150;29;20178;-73
2023/01/10 09:25:47;;;;;;;13.50;2.83;;;14.70;67.60;;;;;;4921899;29;20447;-72
2023/01/10 09:28:13;;;;;;;9.05;2.67;;;14.80;67.60;;;;;;4922397;29;20047;-72
2023/01/10 09:30:39;;;;;;;14.00;2.67;;;14.80;67.60;;;;;;4922178;29;20074;-71
2023/01/10 09:33:05;;;;;;;11.30;3.70;;;14.90;67.70;;;;;;4921672;29;20452;-72
2023/01/10 09:35:34;;;;;;;10.73;2.28;;;14.90;67.70;;;;;;4904273;29;20103;-72
2023/01/10 09:38:00;;;;;;;12.00;2.63;;;15.00;67.80;;;;;;4922251;29;20055;-72
2023/01/10 09:40:31;;;;;;;10.52;2.80;;;15.00;67.80;;;;;;4921849;29;20090;-73
2023/01/10 09:43:03;;;;;;;14.98;2.90;;;15.10;67.80;;;;;;4921874;29;20119;-75
2023/01/10 09:46:00;;;;;;;14.48;3.05;;;15.10;67.90;;;;;;4921901;29;20366;-75
2023/01/10 09:48:37;;;;;;;18.88;3.03;;;15.10;67.80;;;;;;4921508;29;20056;-78
2023/01/10 09:51:09;;;;;;;15.98;3.08;;;15.20;68.00;;;;;;4921787;29;20044;-76
2023/01/10 09:53:40;;;;;;;12.68;2.35;;;15.20;67.80;;;;;;4921719;29;20359;-74
2023/01/10 09:56:07;;;;;;;13.48;2.67;;;15.20;67.80;;;;;;4920699;29;20044;-73
2023/01/10 09:58:37;;;;;;;13.48;2.58;;;15.30;67.70;;;;;;4903843;29;20333;-72
2023/01/10 10:01:11;;;;;;;19.70;3.13;;;15.40;67.60;;;;;;4921651;29;20456;-72
2023/01/10 10:03:52;;;;;;;14.52;2.17;;;15.40;67.40;;;;;;4905058;29;20621;-77
2023/01/10 10:06:20;;;;;;;12.68;2.60;;;15.50;67.60;;;;;;4904519;29;20479;-80
2023/01/10 10:08:46;;;;;;;29.05;3.13;;;15.60;67.20;;;;;;4920812;29;20464;-73
2023/01/10 10:11:24;;;;;;;13.38;3.05;;;15.60;66.40;;;;;;4921310;29;20056;-74
2023/01/10 10:13:54;;;;;;;14.55;2.97;;;15.70;65.40;;;;;;4921179;29;20060;-73
2023/01/10 10:16:22;;;;;;;14.75;3.28;;;15.70;65.30;;;;;;4920844;29;20062;-73
2023/01/10 10:19:22;;;;;;;11.90;2.35;;;15.80;65.30;;;;;;4921434;29;20059;-74
2023/01/10 10:22:00;;;;;;;12.82;2.75;;;15.90;65.10;;;;;;4920839;29;20087;-74
2023/01/10 10:25:10;;;;;;;9.50;2.58;;;16.00;65.10;;;;;;4920872;29;20040;-74
2023/01/10 10:27:46;;;;;;;13.82;2.72;;;16.00;65.20;;;;;;4862796;29;20045;-73
2023/01/10 10:30:15;;;;;;;17.95;2.78;;;16.00;65.40;;;;;;4916359;29;20056;-73
2023/01/10 10:33:01;;;;;;;11.82;3.10;;;16.00;65.40;;;;;;4920942;29;20063;-73
2023/01/10 10:35:37;;;;;;;7.63;2.78;;;16.10;65.60;;;;;;4920521;29;20044;-72
2023/01/10 10:38:13;;;;;;;10.10;2.85;;;16.10;66.00;;;;;;4920787;29;20052;-73
2023/01/10 10:40:43;;;;;;;8.93;2.78;;;16.10;66.10;;;;;;4921176;29;20035;-75
2023/01/10 10:43:23;;;;;;;11.63;3.00;;;16.10;66.20;;;;;;4920806;29;20052;-74
2023/01/10 10:45:56;;;;;;;15.23;2.75;;;16.10;66.20;;;;;;4920083;29;20483;-73
2023/01/10 10:48:35;;;;;;;12.20;2.27;;;16.10;66.30;;;;;;4920440;29;20092;-73
2023/01/10 10:51:38;;;;;;;8.02;2.45;;;16.10;66.40;;;;;;4904182;29;20443;-73
2023/01/10 10:54:06;;;;;;;7.53;2.25;;;16.20;66.40;;;;;;4920609;29;20040;-73
2023/01/10 10:56:32;;;;;;;9.23;2.97;;;16.20;66.40;;;;;;4920221;29;20099;-74
2023/01/10 10:58:59;;;;;;;8.75;1.98;;;16.10;66.40;;;;;;4920736;29;20130;-72
2023/01/10 11:01:25;;;;;;;9.52;2.00;;;16.10;66.50;;;;;;4919615;29;20067;-72
2023/01/10 11:04:00;;;;;;;8.07;1.83;;;16.10;66.50;;;;;;4900917;29;20394;-72
2023/01/10 11:06:29;;;;;;;7.13;1.38;;;16.20;66.60;;;;;;4919372;29;20052;-73
2023/01/10 11:08:58;;;;;;;7.97;1.80;;;16.20;66.50;;;;;;4919374;29;20145;-72
2023/01/10 11:11:30;;;;;;;11.63;2.03;;;16.20;66.50;;;;;;4919327;29;20044;-72
2023/01/10 11:14:01;;;;;;;5.80;1.73;;;16.20;66.50;;;;;;4919933;29;20048;-72
2023/01/10 11:16:42;;;;;;;8.18;2.22;;;16.20;67.00;;;;;;4918367;29;20055;-72
2023/01/10 11:19:23;;;;;;;9.10;1.65;;;16.10;66.40;;;;;;4920094;29;20118;-73
2023/01/10 11:22:02;;;;;;;10.25;2.58;;;16.10;66.40;;;;;;4900648;29;20083;-72
2023/01/10 11:24:38;;;;;;;13.10;2.58;;;16.10;66.50;;;;;;4901450;29;20372;-72
2023/01/10 11:27:21;;;;;;;13.25;2.60;;;16.10;66.60;;;;;;4901214;29;20067;-73
2023/01/10 11:30:00;;;;;;;9.82;1.90;;;16.00;66.50;;;;;;4904387;29;20075;-74
2023/01/10 11:32:53;;;;;;;9.27;2.38;;;16.00;66.70;;;;;;4919892;29;20156;-74
2023/01/10 11:35:22;;;;;;;16.75;2.92;;;15.90;66.70;;;;;;4918729;29;20463;-73
2023/01/10 11:38:14;;;;;;;11.82;2.53;;;15.90;66.80;;;;;;4919234;29;20056;-72
2023/01/10 11:40:56;;;;;;;10.30;2.00;;;15.90;67.20;;;;;;4919322;29;20048;-73
2023/01/10 11:43:28;;;;;;;12.90;3.10;;;15.80;67.50;;;;;;4919011;29;20131;-74
2023/01/10 11:45:57;;;;;;;16.25;3.20;;;15.80;67.70;;;;;;4918765;29;20055;-74
2023/01/10 11:48:25;;;;;;;10.40;2.65;;;15.70;67.50;;;;;;4918806;29;20107;-76
2023/01/10 11:50:53;;;;;;;7.70;2.38;;;15.70;68.00;;;;;;4902207;29;20384;-72
2023/01/10 11:53:30;;;;;;;8.82;2.20;;;15.70;68.10;;;;;;4919010;29;20088;-72
2023/01/10 11:55:55;;;;;;;17.58;3.30;;;15.70;68.40;;;;;;4919571;29;20126;-73
2023/01/10 11:58:28;;;;;;;7.47;2.17;;;15.60;68.30;;;;;;4919238;29;20052;-74
2023/01/10 12:00:53;;;;;;;12.05;3.13;;;15.60;68.30;;;;;;4918356;29;20452;-74
2023/01/10 12:03:33;;;;;;;14.45;2.60;;;15.60;68.40;;;;;;4918656;29;20048;-73
2023/01/10 12:06:03;;;;;;;15.32;2.50;;;15.50;68.50;;;;;;4918416;29;20040;-74
2023/01/10 12:08:37;;;;;;;17.23;2.88;;;15.50;68.60;;;;;;4919025;29;20052;-73
2023/01/10 12:11:04;;;;;;;18.88;3.03;;;15.50;68.50;;;;;;4918425;29;20066;-73
2023/01/10 12:13:51;;;;;;;8.73;1.85;;;15.50;68.60;;;;;;4919469;29;20091;-75
2023/01/10 12:16:29;;;;;;;11.52;2.60;;;15.50;68.70;;;;;;4918916;29;20115;-73
2023/01/10 12:18:58;;;;;;;13.48;2.67;;;15.40;68.70;;;;;;4918337;29;20075;-75
2023/01/10 12:21:53;;;;;;;13.18;3.33;;;15.40;68.80;;;;;;4918013;29;20123;-76
2023/01/10 12:24:34;;;;;;;13.68;2.78;;;15.40;68.80;;;;;;4917941;29;20135;-74
2023/01/10 12:27:02;;;;;;;14.57;2.70;;;15.40;68.80;;;;;;4918293;29;20059;-74
2023/01/10 12:29:34;;;;;;;14.70;2.70;;;15.40;69.00;;;;;;4916163;29;20119;-73
2023/01/10 12:32:01;;;;;;;15.57;2.33;;;15.30;69.10;;;;;;4915304;29;20055;-74
2023/01/10 12:34:40;;;;;;;19.85;4.40;;;15.30;69.20;;;;;;4917351;29;20048;-73
2023/01/10 12:37:22;;;;;;;14.07;2.38;;;15.30;69.20;;;;;;4918171;29;20055;-73
2023/01/10 12:39:59;;;;;;;13.05;2.83;;;15.30;69.30;;;;;;4916461;29;20104;-76
2023/01/10 12:45:45;;;;;;;11.50;2.88;;;15.30;69.30;;;;;;4915976;29;20087;-74
2023/01/10 12:48:26;;;;;;;10.52;2.40;;;15.30;69.20;;;;;;4918545;29;20130;-73
2023/01/10 12:51:01;;;;;;;12.70;2.97;;;15.30;69.30;;;;;;4907284;29;20052;-74
2023/01/10 12:53:48;;;;;;;11.50;2.47;;;15.30;69.30;;;;;;4902107;29;20106;-75
2023/01/10 12:56:17;;;;;;;9.95;2.55;;;15.30;69.10;;;;;;4915746;29;20047;-73
2023/01/10 12:58:56;;;;;;;10.80;2.35;;;15.30;69.10;;;;;;4912114;29;20486;-74
2023/01/10 13:01:33;;;;;;;8.77;1.92;;;15.30;69.10;;;;;;4916768;29;20043;-74
2023/01/10 13:04:10;;;;;;;14.38;2.75;;;15.30;69.20;;;;;;4901093;29;20063;-74
2023/01/10 13:06:39;;;;;;;17.20;3.05;;;15.30;69.10;;;;;;4915167;29;20067;-74
2023/01/10 13:09:08;;;;;;;10.35;2.60;;;15.30;69.10;;;;;;4915030;29;20119;-75
2023/01/10 13:11:41;;;;;;;9.23;2.85;;;15.20;69.10;;;;;;4914639;29;20043;-75
2023/01/10 13:14:12;;;;;;;6.35;2.20;;;15.20;69.20;;;;;;4912948;29;20044;-75
2023/01/10 13:16:51;;;;;;;17.55;3.15;;;15.20;69.20;;;;;;4917857;29;20435;-73
2023/01/10 13:19:20;;;;;;;9.45;2.80;;;15.20;69.30;;;;;;4915964;29;20044;-74
2023/01/10 13:21:46;;;;;;;12.07;2.70;;;15.10;69.20;;;;;;4914446;29;20435;-74
2023/01/10 13:24:16;;;;;;;8.45;2.50;;;15.10;69.30;;;;;;4914706;29;20051;-74
2023/01/10 13:26:51;;;;;;;7.05;2.20;;;15.10;69.40;;;;;;4917748;29;20083;-74
2023/01/10 13:29:23;;;;;;;10.80;2.45;;;15.00;69.30;;;;;;4917400;29;20052;-74
2023/01/10 13:31:56;;;;;;;8.70;2.45;;;15.00;69.50;;;;;;4917480;29;20048;-73
2023/01/10 13:34:25;;;;;;;9.90;2.30;;;15.00;69.50;;;;;;4917907;29;20052;-74
2023/01/10 13:37:13;;;;;;;13.05;3.35;;;15.10;69.60;;;;;;4921157;29;20048;-80
2023/01/10 13:39:44;;;;;;;13.65;4.20;;;15.10;68.90;;;;;;4916088;29;20123;-83
2023/01/10 13:45:08;;;;;;;15.98;4.20;;;15.00;64.80;;;;;;4920684;29;20364;-76
2023/01/10 13:47:44;;;;;;;21.20;3.92;;;14.90;63.60;;;;;;4918884;29;20050;-74
2023/01/10 13:50:24;;;;;;;23.90;6.07;;;14.80;62.90;;;;;;4920986;29;20332;-74
2023/01/10 13:53:06;;;;;;;21.40;4.82;;;14.70;62.50;;;;;;4920259;29;20039;-75
2023/01/10 13:55:38;;;;;;;21.63;4.03;;;14.70;61.90;;;;;;4920978;29;20119;-74
2023/01/10 14:04:30;;;;;;;15.15;3.40;;;14.30;64.20;;;;;;4917066;29;20062;-76
2023/01/10 14:07:02;;;;;;;17.00;4.00;;;14.30;63.60;;;;;;4919635;29;20047;-74
2023/01/10 14:10:46;;;;;;;21.00;5.30;;;14.50;63.00;;;;;;5123144;27;20378;-76
2023/01/10 14:13:21;;;;;;;19.30;4.13;;;14.60;63.80;;;;;;5111767;28;20063;-77
2023/01/10 14:15:47;;;;;;;18.52;3.70;;;14.80;63.90;;;;;;5112227;28;20362;-76
2023/01/10 14:18:23;;;;;;;17.27;3.50;;;15.00;64.00;;;;;;5112312;28;20202;-76
2023/01/10 14:21:01;;;;;;;15.88;3.80;;;15.10;64.30;;;;;;5094435;28;20101;-76
2023/01/10 14:23:43;;;;;;;15.70;3.70;;;15.20;64.40;;;;;;5093606;28;20047;-76
2023/01/10 14:26:28;;;;;;;12.13;2.78;;;15.30;64.40;;;;;;5111843;28;20071;-76
2023/01/10 14:28:55;;;;;;;15.60;3.30;;;15.30;64.50;;;;;;5109884;28;20040;-75
2023/01/10 14:31:24;;;;;;;17.83;3.45;;;15.40;64.70;;;;;;5112213;28;20071;-75
2023/01/10 14:33:51;;;;;;;20.38;3.38;;;15.40;64.90;;;;;;5111290;28;20366;-75
2023/01/10 14:36:59;;;;;;;16.15;3.90;;;15.40;65.00;;;;;;5111412;28;20084;-75
2023/01/10 14:39:27;;;;;;;24.85;4.13;;;15.40;65.30;;;;;;5108836;28;20042;-77
2023/01/10 14:41:58;;;;;;;18.25;3.90;;;15.50;65.70;;;;;;5111961;28;20048;-75
2023/01/10 14:44:34;;;;;;;20.30;3.85;;;15.40;65.80;;;;;;5094141;28;20044;-71
2023/01/10 14:47:03;;;;;;;20.48;3.70;;;15.40;66.10;;;;;;5111917;28;20040;-73
2023/01/10 14:49:46;;;;;;;19.98;3.72;;;15.50;66.20;;;;;;5111672;28;20039;-75
2023/01/10 14:52:12;;;;;;;23.75;2.85;;;15.50;66.40;;;;;;5091019;28;20040;-74
2023/01/10 14:54:38;;;;;;;18.30;3.22;;;15.50;66.40;;;;;;5091946;28;20052;-78
2023/01/10 14:57:14;;;;;;;15.02;3.53;;;15.60;66.70;;;;;;5092144;28;20055;-78
2023/01/10 14:59:40;;;;;;;24.83;4.13;;;15.70;66.70;;;;;;5104746;28;20393;-75
2023/01/10 15:02:22;;;;;;;17.25;3.42;;;15.80;66.60;;;;;;5111890;28;20131;-76
2023/01/10 15:04:55;;;;;;;18.17;3.10;;;15.90;66.70;;;;;;5112388;28;20439;-74
2023/01/10 15:07:22;;;;;;;20.33;3.17;;;16.00;67.10;;;;;;5111898;28;20051;-74
2023/01/10 15:09:55;;;;;;;14.70;2.80;;;16.10;66.40;;;;;;5111062;28;20064;-76
2023/01/10 15:12:22;;;;;;;22.02;4.25;;;16.10;66.40;;;;;;5111656;28;20457;-76
2023/01/10 15:14:53;;;;;;;21.83;4.05;;;16.20;66.50;;;;;;5094324;28;20120;-73
2023/01/10 15:17:20;;;;;;;16.00;4.38;;;16.20;66.30;;;;;;5094326;28;20044;-72
2023/01/10 15:19:50;;;;;;;17.95;4.95;;;16.30;66.60;;;;;;5111112;28;20473;-73
2023/01/10 15:22:34;;;;;;;18.80;5.25;;;16.30;66.40;;;;;;5097447;28;20359;-73
2023/01/10 15:25:01;;;;;;;23.58;6.05;;;16.30;66.50;;;;;;5096684;28;20080;-72
2023/01/10 15:27:28;;;;;;;20.83;6.30;;;16.30;66.60;;;;;;5096260;28;20087;-72
2023/01/10 15:29:55;;;;;;;25.63;6.75;;;16.30;66.90;;;;;;5079222;28;20055;-72
2023/01/10 15:32:30;;;;;;;26.08;6.68;;;16.30;67.00;;;;;;5097551;28;20118;-72
2023/01/10 15:34:57;;;;;;;22.20;6.47;;;16.40;67.10;;;;;;5096928;28;20044;-76
2023/01/10 15:37:33;;;;;;;26.17;7.90;;;16.30;67.10;;;;;;5097898;28;20036;-75
2023/01/10 15:40:00;;;;;;;25.40;7.32;;;16.30;67.50;;;;;;5097075;28;20419;-78
2023/01/10 15:42:27;;;;;;;25.08;6.47;;;16.30;67.30;;;;;;5079712;28;20086;-80
2023/01/10 15:44:57;;;;;;;30.02;7.00;;;16.30;67.20;;;;;;5097686;28;20036;-80
2023/01/10 15:47:47;;;;;;;27.00;6.17;;;16.30;66.50;;;;;;5080215;28;20343;-79
2023/01/10 15:50:27;;;;;;;27.20;5.97;;;16.30;65.80;;;;;;5097115;28;20043;-79
2023/01/10 15:53:04;;;;;;;38.40;6.75;;;16.20;65.30;;;;;;5097205;28;20347;-76
2023/01/10 15:55:44;;;;;;;24.58;5.15;;;16.20;64.60;;;;;;5077119;28;20102;-73
2023/01/10 15:58:25;;;;;;;25.48;5.70;;;16.20;64.00;;;;;;5077237;28;20040;-76
2023/01/10 16:00:53;;;;;;;25.55;5.50;;;16.00;65.20;;;;;;5077309;28;20379;-75
2023/01/10 16:03:33;;;;;;;27.55;4.95;;;16.10;65.40;;;;;;5077115;28;20048;-75
2023/01/10 16:05:59;;;;;;;19.85;3.90;;;16.10;66.20;;;;;;5076873;28;20048;-78
2023/01/10 16:08:31;;;;;;;20.58;5.00;;;16.20;66.60;;;;;;5060533;28;20045;-74
2023/01/10 16:11:00;;;;;;;18.85;4.20;;;16.20;66.90;;;;;;5097239;28;20048;-75
2023/01/10 16:13:26;;;;;;;17.52;3.92;;;16.20;67.30;;;;;;5097365;28;20055;-77
2023/01/10 16:15:55;;;;;;;13.68;2.88;;;16.30;67.50;;;;;;5097430;28;20044;-75
2023/01/10 16:18:21;;;;;;;15.32;3.47;;;16.30;67.90;;;;;;5097108;28;20054;-74
2023/01/10 16:20:48;;;;;;;17.05;3.10;;;16.30;68.10;;;;;;5096602;28;20052;-74
2023/01/10 16:23:19;;;;;;;12.50;3.40;;;16.40;68.40;;;;;;5096820;28;20048;-76
2023/01/10 16:25:48;;;;;;;14.48;2.60;;;16.30;68.50;;;;;;5096816;28;20196;-74
2023/01/10 16:28:16;;;;;;;13.88;3.33;;;16.40;68.50;;;;;;5096815;28;20051;-76
2023/01/10 16:30:45;;;;;;;16.90;3.22;;;16.30;68.60;;;;;;5096796;28;20052;-75
2023/01/10 16:33:22;;;;;;;16.70;3.30;;;16.30;68.80;;;;;;5095231;28;20052;-73
2023/01/10 16:35:57;;;;;;;17.33;2.92;;;16.30;68.90;;;;;;5079034;28;20450;-75
2023/01/10 16:38:24;;;;;;;11.52;3.08;;;16.30;69.00;;;;;;5096614;28;20538;-75
2023/01/10 16:40:57;;;;;;;12.38;2.67;;;16.30;69.10;;;;;;5096121;28;20043;-74
2023/01/10 16:43:25;;;;;;;9.95;2.03;;;16.20;69.20;;;;;;5096503;28;20109;-76
2023/01/10 16:45:59;;;;;;;12.05;2.20;;;16.20;69.20;;;;;;5096345;28;20060;-76
2023/01/10 16:48:30;;;;;;;14.05;2.70;;;16.10;69.40;;;;;;5096438;28;20044;-75
2023/01/10 16:51:05;;;;;;;10.63;2.33;;;16.10;69.40;;;;;;5095967;28;20055;-74
2023/01/10 16:53:30;;;;;;;12.25;2.42;;;16.10;69.70;;;;;;5096004;28;20091;-76
2023/01/10 16:55:57;;;;;;;14.05;2.55;;;16.10;69.80;;;;;;5094895;28;20064;-76
2023/01/10 16:58:23;;;;;;;10.80;2.63;;;16.10;69.60;;;;;;5094005;28;20028;-74
2023/01/10 17:00:51;;;;;;;13.85;2.55;;;16.10;69.70;;;;;;5095154;28;20449;-75
2023/01/10 17:03:21;;;;;;;13.52;3.03;;;16.00;69.80;;;;;;5095991;28;20051;-76
2023/01/10 17:05:47;;;;;;;19.20;2.72;;;16.00;69.60;;;;;;5060342;28;20120;-74
2023/01/10 17:08:16;;;;;;;16.88;3.17;;;16.00;69.40;;;;;;5095731;28;20458;-76
2023/01/10 17:10:44;;;;;;;12.65;3.25;;;16.00;68.60;;;;;;5095275;28;20401;-73
2023/01/10 17:13:11;;;;;;;19.70;3.47;;;16.00;67.30;;;;;;5076726;28;20047;-76
2023/01/10 17:15:36;;;;;;;20.90;3.95;;;16.00;65.80;;;;;;5077294;28;20082;-77
2023/01/10 17:18:03;;;;;;;21.92;3.50;;;15.80;65.50;;;;;;5074464;28;20474;-77
2023/01/10 17:20:29;;;;;;;17.15;2.70;;;15.60;65.90;;;;;;5075760;28;20481;-75
2023/01/10 17:22:56;;;;;;;25.55;3.20;;;15.40;66.40;;;;;;5057824;28;20052;-76
2023/01/10 17:25:22;;;;;;;10.43;2.67;;;15.20;67.00;;;;;;5075320;28;20060;-78
2023/01/10 17:27:48;;;;;;;14.68;3.53;;;15.10;67.40;;;;;;5086512;28;20047;-77
2023/01/10 17:30:14;;;;;;;10.73;2.20;;;14.90;67.80;;;;;;5095708;28;20048;-76
2023/01/10 17:32:40;;;;;;;13.00;2.55;;;14.80;68.20;;;;;;5095843;28;20090;-76
2023/01/10 17:35:07;;;;;;;11.45;2.40;;;14.70;68.70;;;;;;5095881;28;20044;-77
2023/01/10 17:37:33;;;;;;;12.55;2.35;;;14.60;69.10;;;;;;5074232;28;20055;-78
2023/01/10 17:39:59;;;;;;;9.65;2.30;;;14.50;69.50;;;;;;5075054;28;20339;-77
2023/01/10 17:42:25;;;;;;;10.43;2.72;;;14.40;69.80;;;;;;5075268;28;20047;-79
2023/01/10 17:44:50;;;;;;;11.73;2.40;;;14.40;70.00;;;;;;5075075;28;20074;-77
2023/01/10 17:47:16;;;;;;;11.48;2.13;;;14.40;70.00;;;;;;5081476;28;20050;-77
2023/01/10 17:49:42;;;;;;;10.80;2.67;;;14.40;70.10;;;;;;5095562;28;20054;-77
2023/01/10 17:52:08;;;;;;;8.48;1.98;;;14.40;70.20;;;;;;5095185;28;20044;-74
2023/01/10 17:54:35;;;;;;;10.02;2.70;;;14.40;70.30;;;;;;5095300;28;20085;-75
2023/01/10 17:57:02;;;;;;;14.15;2.38;;;14.30;70.30;;;;;;5077430;28;20044;-76
2023/01/10 17:59:28;;;;;;;12.20;2.15;;;14.30;70.40;;;;;;5095313;28;20148;-77
2023/01/10 18:01:54;;;;;;;10.98;1.95;;;14.30;70.50;;;;;;5095429;28;20094;-77
2023/01/10 18:47:33;;;;;;;6.80;1.60;;;13.90;72.90;;;;;;4950099;23;20058;-74
2023/01/10 18:49:59;;;;;;;6.65;1.50;;;14.00;72.60;;;;;;4869181;29;20597;-72
2023/01/10 18:52:24;;;;;;;5.90;1.20;;;14.10;72.20;;;;;;4862688;29;20132;-73
2023/01/10 18:54:53;;;;;;;7.60;1.70;;;14.20;72.10;;;;;;4876835;29;20061;-70
2023/01/10 18:57:19;;;;;;;3.63;1.00;;;14.30;71.90;;;;;;4865475;29;20061;-71
2023/01/10 18:59:45;;;;;;;5.22;1.38;;;14.30;71.80;;;;;;4865701;29;20341;-72
2023/01/10 19:02:14;;;;;;;8.02;1.30;;;14.40;71.70;;;;;;4865719;29;20469;-73
2023/01/10 19:04:40;;;;;;;3.75;1.10;;;14.40;71.70;;;;;;4865499;29;20127;-75
2023/01/10 19:07:06;;;;;;;6.43;0.90;;;14.50;71.50;;;;;;4865670;29;20041;-75
2023/01/10 19:09:32;;;;;;;5.80;1.40;;;14.50;71.50;;;;;;4872947;29;20109;-76
2023/01/10 19:11:57;;;;;;;4.65;0.93;;;14.50;71.30;;;;;;4872177;29;20053;-72
2023/01/10 19:14:23;;;;;;;5.45;1.08;;;14.50;71.30;;;;;;4865402;29;20045;-73
2023/01/10 19:16:49;;;;;;;4.10;1.27;;;14.60;71.40;;;;;;4865309;29;20053;-71
2023/01/10 19:19:15;;;;;;;4.97;1.20;;;14.60;71.50;;;;;;4865440;29;20049;-70
2023/01/10 19:21:41;;;;;;;3.45;0.70;;;14.60;71.50;;;;;;4865562;29;20053;-72
2023/01/10 19:24:18;;;;;;;4.05;1.00;;;14.70;71.60;;;;;;4865543;29;20118;-69
2023/01/10 19:26:44;;;;;;;6.03;0.90;;;14.70;70.90;;;;;;4865251;29;20046;-70
2023/01/10 19:29:10;;;;;;;6.82;1.35;;;14.70;71.20;;;;;;4861375;29;20128;-70
2023/01/10 19:31:36;;;;;;;7.93;1.00;;;14.70;71.30;;;;;;4875376;29;20060;-71
2023/01/10 19:34:01;;;;;;;8.95;1.48;;;14.70;71.10;;;;;;4865336;29;20431;-72
2023/01/10 19:36:27;;;;;;;3.83;1.10;;;14.80;70.90;;;;;;4876105;29;20361;-71
2023/01/10 19:38:55;;;;;;;8.63;1.20;;;14.70;70.80;;;;;;4865905;29;20041;-71